createdAt,value
2019-01-08T00:00:36.173Z,45.77
2019-01-08T00:03:02.815Z,47.90
2019-01-08T00:05:29.248Z,48.13
2019-01-08T00:07:56.692Z,49.77
2019-01-08T00:10:23.091Z,48.63
2019-01-08T00:12:49.451Z,47.93
2019-01-08T00:15:15.903Z,45.97
2019-01-08T00:17:42.327Z,47.30
2019-01-08T00:20:08.607Z,49.37
2019-01-08T00:22:34.984Z,47.50
2019-01-08T00:25:01.314Z,50.60
2019-01-08T00:27:27.695Z,50.43
2019-01-08T00:29:54.062Z,46.63
2019-01-08T00:32:20.478Z,47.43
2019-01-08T00:34:46.813Z,47.83
2019-01-08T00:37:13.186Z,48.53
2019-01-08T00:39:39.556Z,47.47
2019-01-08T00:42:05.964Z,51.80
2019-01-08T00:44:32.351Z,48.90
2019-01-08T00:46:58.691Z,53.90
2019-01-08T00:49:26.198Z,52.63
2019-01-08T00:51:52.636Z,55.40
2019-01-08T00:54:19.039Z,58.83
2019-01-08T00:56:45.379Z,64.37
2019-01-08T00:59:11.795Z,68.70
2019-01-08T01:01:38.116Z,71.93
2019-01-08T01:04:04.460Z,75.73
2019-01-08T01:06:30.828Z,75.33
2019-01-08T01:08:57.239Z,78.03
2019-01-08T01:11:23.602Z,75.23
2019-01-08T01:13:49.937Z,71.33
2019-01-08T01:16:16.300Z,71.83
2019-01-08T01:18:42.700Z,73.00
2019-01-08T01:21:09.050Z,69.50
2019-01-08T01:23:35.444Z,65.93
2019-01-08T01:26:01.795Z,70.80
2019-01-08T01:28:28.204Z,68.47
2019-01-08T01:30:54.544Z,63.63
2019-01-08T01:33:20.951Z,67.17
2019-01-08T01:35:47.275Z,64.27
2019-01-08T01:38:13.644Z,64.63
2019-01-08T01:40:39.994Z,63.50
2019-01-08T01:43:06.373Z,66.63
2019-01-08T01:45:32.707Z,63.07
2019-01-08T01:47:59.087Z,64.03
2019-01-08T01:50:25.575Z,62.93
2019-01-08T01:52:51.919Z,60.43
2019-01-08T01:55:18.322Z,60.20
2019-01-08T01:57:44.660Z,61.73
2019-01-08T02:00:11.038Z,60.80
2019-01-08T02:02:37.361Z,61.73
2019-01-08T02:05:04.098Z,58.67
2019-01-08T02:07:30.498Z,58.73
2019-01-08T02:09:56.953Z,56.67
2019-01-08T02:12:23.334Z,61.67
2019-01-08T02:14:49.717Z,56.50
2019-01-08T02:17:16.116Z,56.37
2019-01-08T02:19:42.483Z,53.47
2019-01-08T02:22:08.821Z,55.33
2019-01-08T02:24:35.245Z,56.50
2019-01-08T02:27:01.750Z,56.47
2019-01-08T02:29:28.196Z,51.97
2019-01-08T02:31:54.559Z,51.37
2019-01-08T02:34:20.925Z,51.90
2019-01-08T02:36:47.319Z,55.27
2019-01-08T02:39:13.725Z,50.80
2019-01-08T02:41:40.106Z,51.40
2019-01-08T02:44:06.523Z,53.77
2019-01-08T02:46:32.952Z,50.57
2019-01-08T02:48:59.259Z,49.10
2019-01-08T02:51:25.636Z,49.60
2019-01-08T02:53:51.973Z,51.73
2019-01-08T02:56:18.335Z,47.80
2019-01-08T02:58:44.701Z,48.20
2019-01-08T03:01:11.077Z,50.47
2019-01-08T03:03:37.419Z,49.77
2019-01-08T03:06:03.849Z,48.40
2019-01-08T03:08:30.301Z,47.37
2019-01-08T03:10:56.708Z,51.27
2019-01-08T03:13:23.153Z,50.60
2019-01-08T03:15:49.549Z,52.23
2019-01-08T03:18:15.931Z,52.07
2019-01-08T03:20:42.397Z,50.87
2019-01-08T03:23:08.742Z,51.67
2019-01-08T03:25:35.154Z,54.10
2019-01-08T03:28:01.607Z,54.00
2019-01-08T03:30:27.970Z,54.40
2019-01-08T03:32:54.372Z,54.43
2019-01-08T03:35:20.724Z,54.90
2019-01-08T03:37:47.061Z,52.33
2019-01-08T03:40:13.448Z,53.33
2019-01-08T03:42:39.776Z,52.90
2019-01-08T03:45:06.155Z,49.33
2019-01-08T03:47:32.520Z,48.10
2019-01-08T03:49:58.917Z,50.53
2019-01-08T03:52:25.288Z,48.37
2019-01-08T03:54:51.677Z,48.13
2019-01-08T03:57:17.995Z,47.10
2019-01-08T03:59:44.410Z,43.93
2019-01-08T04:02:10.787Z,41.23
2019-01-08T04:04:37.189Z,44.77
2019-01-08T04:07:03.552Z,41.57
2019-01-08T04:09:29.961Z,39.37
2019-01-08T04:11:56.333Z,37.00
2019-01-08T04:14:22.715Z,36.40
2019-01-08T04:16:49.139Z,37.90
2019-01-08T04:19:15.476Z,35.60
2019-01-08T04:21:41.866Z,36.40
2019-01-08T04:24:08.238Z,35.10
2019-01-08T04:26:34.672Z,35.53
2019-01-08T04:29:01.115Z,33.47
2019-01-08T04:31:27.491Z,33.70
2019-01-08T04:33:53.918Z,31.83
2019-01-08T04:36:20.331Z,32.33
2019-01-08T04:38:46.690Z,30.80
2019-01-08T04:41:13.084Z,31.23
2019-01-08T04:43:39.430Z,31.80
2019-01-08T04:46:05.806Z,31.40
2019-01-08T04:48:32.238Z,29.57
2019-01-08T04:50:58.644Z,31.47
2019-01-08T04:53:25.053Z,32.00
2019-01-08T04:55:51.381Z,32.00
2019-01-08T04:58:17.787Z,30.70
2019-01-08T05:00:44.146Z,32.53
2019-01-08T05:03:10.510Z,31.43
2019-01-08T05:05:36.921Z,31.27
2019-01-08T05:08:03.302Z,31.73
2019-01-08T05:10:29.627Z,31.67
2019-01-08T05:12:56.040Z,32.77
2019-01-08T05:15:22.411Z,34.00
2019-01-08T05:17:48.756Z,32.67
2019-01-08T05:20:15.156Z,34.23
2019-01-08T05:22:41.528Z,33.73
2019-01-08T05:25:07.960Z,34.03
2019-01-08T05:27:34.406Z,32.20
2019-01-08T05:30:07.923Z,31.27
2019-01-08T05:32:28.947Z,29.73
2019-01-08T05:34:55.295Z,31.80
2019-01-08T05:37:21.717Z,32.87
2019-01-08T05:39:48.065Z,31.50
2019-01-08T05:42:14.462Z,31.53
2019-01-08T05:44:40.799Z,33.60
2019-01-08T05:47:07.162Z,30.87
2019-01-08T05:49:33.503Z,30.37
2019-01-08T05:51:59.909Z,30.93
2019-01-08T05:54:26.285Z,30.50
2019-01-08T05:56:52.684Z,32.23
2019-01-08T05:59:19.015Z,32.23
2019-01-08T06:01:45.443Z,31.27
2019-01-08T06:04:11.853Z,29.70
2019-01-08T06:06:38.231Z,33.57
2019-01-08T06:09:05.066Z,32.47
2019-01-08T06:11:31.431Z,33.17
2019-01-08T06:13:57.829Z,33.63
2019-01-08T06:16:24.169Z,31.80
2019-01-08T06:18:50.543Z,31.73
2019-01-08T06:21:16.911Z,31.10
2019-01-08T06:23:43.336Z,31.97
2019-01-08T06:26:09.697Z,28.87
2019-01-08T06:28:36.133Z,31.20
2019-01-08T06:31:02.523Z,29.43
2019-01-08T06:33:28.931Z,32.27
2019-01-08T06:35:56.300Z,33.60
2019-01-08T06:38:22.635Z,34.67
2019-01-08T06:40:57.304Z,30.67
2019-01-08T06:43:17.621Z,32.23
2019-01-08T06:45:44.101Z,33.40
2019-01-08T06:48:10.498Z,32.07
2019-01-08T06:50:37.495Z,31.23
2019-01-08T06:53:04.056Z,35.13
2019-01-08T06:55:30.490Z,31.37
2019-01-08T06:57:56.866Z,32.77
2019-01-08T07:00:23.299Z,32.23
2019-01-08T07:02:49.682Z,30.10
2019-01-08T07:05:16.260Z,31.73
2019-01-08T07:07:42.621Z,31.47
2019-01-08T07:10:09.024Z,30.27
2019-01-08T07:12:35.390Z,28.87
2019-01-08T07:15:01.792Z,29.63
2019-01-08T07:17:28.237Z,29.43
2019-01-08T07:19:55.398Z,28.40
2019-01-08T07:22:22.004Z,28.87
2019-01-08T07:24:48.381Z,28.43
2019-01-08T07:27:16.613Z,27.67
2019-01-08T07:29:43.292Z,27.70
2019-01-08T07:32:09.720Z,28.50
2019-01-08T07:34:36.196Z,26.87
2019-01-08T07:37:03.068Z,26.93
2019-01-08T07:39:29.584Z,26.60
2019-01-08T07:41:55.930Z,27.23
2019-01-08T07:44:22.341Z,28.23
2019-01-08T07:46:48.756Z,26.40
2019-01-08T07:49:15.182Z,25.47
2019-01-08T07:51:41.636Z,25.77
2019-01-08T07:54:07.997Z,25.03
2019-01-08T07:56:34.406Z,26.47
2019-01-08T07:59:00.844Z,27.13
2019-01-08T08:01:27.182Z,27.20
2019-01-08T08:03:53.604Z,27.70
2019-01-08T08:06:19.967Z,26.53
2019-01-08T08:08:46.339Z,26.67
2019-01-08T08:11:12.725Z,25.87
2019-01-08T08:13:39.067Z,25.77
2019-01-08T08:16:05.495Z,26.13
2019-01-08T08:18:31.914Z,25.70
2019-01-08T08:20:58.367Z,24.43
2019-01-08T08:23:24.879Z,27.60
2019-01-08T08:25:51.331Z,27.37
2019-01-08T08:28:17.724Z,25.33
2019-01-08T08:30:44.134Z,26.60
2019-01-08T08:33:10.558Z,25.53
2019-01-08T08:35:36.945Z,25.33
2019-01-08T08:38:03.454Z,25.10
2019-01-08T08:40:30.323Z,26.20
2019-01-08T08:42:56.712Z,27.50
2019-01-08T08:45:23.654Z,26.13
2019-01-08T08:47:50.242Z,27.53
2019-01-08T08:50:16.705Z,26.73
2019-01-08T08:52:43.184Z,25.57
2019-01-08T08:55:09.561Z,26.40
2019-01-08T08:57:35.912Z,24.57
2019-01-08T09:00:02.392Z,26.77
2019-01-08T09:02:28.901Z,28.63
2019-01-08T09:04:55.365Z,27.23
2019-01-08T09:07:21.822Z,26.77
2019-01-08T09:09:48.215Z,24.73
2019-01-08T09:12:14.608Z,25.83
2019-01-08T09:14:41.080Z,25.40
2019-01-08T09:17:07.398Z,24.93
2019-01-08T09:19:33.774Z,24.67
2019-01-08T09:22:01.227Z,26.53
2019-01-08T09:24:27.659Z,27.17
2019-01-08T09:26:54.002Z,27.20
2019-01-08T09:29:20.364Z,26.00
2019-01-08T09:31:46.820Z,25.90
2019-01-08T09:34:13.187Z,25.17
2019-01-08T09:36:39.621Z,24.07
2019-01-08T09:39:05.991Z,26.77
2019-01-08T09:41:32.322Z,24.03
2019-01-08T09:43:58.682Z,23.20
2019-01-08T09:46:25.247Z,24.63
2019-01-08T09:48:51.555Z,23.47
2019-01-08T09:51:17.938Z,23.13
2019-01-08T09:53:44.309Z,23.37
2019-01-08T09:56:10.722Z,22.87
2019-01-08T09:58:37.187Z,24.20
2019-01-08T10:01:03.612Z,22.40
2019-01-08T10:03:29.994Z,23.90
2019-01-08T10:05:56.553Z,23.47
2019-01-08T10:08:23.104Z,22.07
2019-01-08T10:10:49.495Z,23.43
2019-01-08T10:13:15.879Z,23.97
2019-01-08T10:15:42.274Z,24.97
2019-01-08T10:18:08.707Z,23.70
2019-01-08T10:20:35.049Z,23.40
2019-01-08T10:23:09.864Z,24.07
2019-01-08T10:25:29.641Z,23.77
2019-01-08T10:27:56.088Z,24.20
2019-01-08T10:30:22.459Z,24.70
2019-01-08T10:32:48.896Z,24.13
2019-01-08T10:35:15.238Z,26.47
2019-01-08T10:37:41.655Z,24.50
2019-01-08T10:40:08.548Z,26.93
2019-01-08T10:42:34.988Z,26.50
2019-01-08T10:45:01.346Z,25.50
2019-01-08T10:47:27.832Z,25.97
2019-01-08T10:49:54.214Z,29.37
2019-01-08T10:52:20.627Z,28.77
2019-01-08T10:54:47.040Z,27.87
2019-01-08T10:57:13.371Z,28.97
2019-01-08T10:59:39.801Z,30.60
2019-01-08T11:02:06.159Z,31.87
2019-01-08T11:04:32.579Z,32.50
2019-01-08T11:06:58.907Z,32.77
2019-01-08T11:09:25.788Z,33.33
2019-01-08T11:11:52.642Z,36.33
2019-01-08T11:14:19.313Z,34.70
2019-01-08T11:16:45.641Z,34.73
2019-01-08T11:19:12.059Z,34.63
2019-01-08T11:21:38.436Z,36.97
2019-01-08T11:24:04.856Z,35.27
2019-01-08T11:26:31.252Z,37.30
2019-01-08T11:28:57.693Z,35.33
2019-01-08T11:31:24.113Z,35.73
2019-01-08T11:33:50.685Z,33.17
2019-01-08T11:36:17.248Z,33.93
2019-01-08T11:38:43.622Z,33.50
2019-01-08T11:41:10.541Z,33.87
2019-01-08T11:43:36.987Z,34.47
2019-01-08T11:46:03.433Z,31.90
2019-01-08T11:48:30.032Z,35.30
2019-01-08T11:50:56.404Z,34.07
2019-01-08T11:53:22.791Z,33.20
2019-01-08T11:55:49.235Z,34.27
2019-01-08T11:58:15.745Z,34.13
2019-01-08T12:00:42.169Z,35.97
2019-01-08T12:03:08.799Z,35.67
2019-01-08T12:05:35.211Z,36.67
2019-01-08T12:08:02.111Z,39.83
2019-01-08T12:10:28.676Z,38.97
2019-01-08T12:12:55.049Z,38.03
2019-01-08T12:15:22.397Z,39.40
2019-01-08T12:17:48.995Z,41.00
2019-01-08T12:20:15.423Z,42.90
2019-01-08T12:22:41.908Z,42.47
2019-01-08T12:25:08.377Z,43.27
2019-01-08T12:27:34.806Z,40.50
2019-01-08T12:30:01.404Z,40.70
2019-01-08T12:32:27.953Z,40.43
2019-01-08T12:34:54.358Z,41.37
2019-01-08T12:37:20.742Z,41.57
2019-01-08T12:39:47.301Z,40.70
2019-01-08T12:42:14.611Z,42.33
2019-01-08T12:44:41.460Z,40.53
2019-01-08T12:47:07.933Z,39.40
2019-01-08T12:49:34.356Z,42.20
2019-01-08T12:52:00.839Z,41.67
2019-01-08T12:54:27.873Z,38.80
2019-01-08T12:56:54.596Z,37.67
2019-01-08T12:59:21.090Z,38.67
2019-01-08T13:01:47.435Z,39.40
2019-01-08T13:04:13.862Z,38.43
2019-01-08T13:06:40.247Z,40.30
2019-01-08T13:09:06.765Z,41.47
2019-01-08T13:11:33.153Z,45.30
2019-01-08T13:13:59.622Z,48.07
2019-01-08T13:16:25.991Z,52.70
2019-01-08T13:18:53.559Z,55.60
2019-01-08T13:21:20.397Z,52.50
2019-01-08T13:23:46.888Z,55.83
2019-01-08T13:26:13.294Z,53.17
2019-01-08T13:28:39.746Z,51.80
2019-01-08T13:31:06.153Z,50.67
2019-01-08T13:33:32.659Z,51.70
2019-01-08T13:35:59.106Z,49.93
2019-01-08T13:38:25.691Z,47.80
2019-01-08T13:40:52.208Z,49.23
2019-01-08T13:43:18.788Z,46.60
2019-01-08T13:45:45.206Z,48.10
2019-01-08T13:48:11.577Z,47.47
2019-01-08T13:50:38.126Z,47.53
2019-01-08T13:53:06.095Z,46.20
2019-01-08T13:55:32.960Z,45.33
2019-01-08T13:57:59.457Z,42.40
2019-01-08T14:00:26.683Z,45.07
2019-01-08T14:02:53.349Z,46.23
2019-01-08T14:05:20.046Z,45.00
2019-01-08T14:07:47.527Z,44.10
2019-01-08T14:10:14.047Z,42.93
2019-01-08T14:12:40.494Z,43.37
2019-01-08T14:15:07.052Z,45.57
2019-01-08T14:17:34.899Z,43.27
2019-01-08T14:20:03.200Z,43.60
2019-01-08T14:22:29.694Z,45.53
2019-01-08T14:24:56.306Z,50.23
2019-01-08T14:27:22.658Z,57.83
2019-01-08T14:29:49.121Z,45.60
2019-01-08T14:32:15.763Z,46.97
2019-01-08T14:34:42.296Z,52.53
2019-01-08T14:37:08.656Z,52.50
2019-01-08T14:39:35.071Z,46.73
2019-01-08T14:42:01.661Z,49.50
2019-01-08T14:44:28.079Z,50.50
2019-01-08T14:46:54.569Z,48.97
2019-01-08T14:49:20.941Z,46.13
2019-01-08T14:51:47.357Z,46.27
2019-01-08T14:54:13.811Z,45.03
2019-01-08T14:56:40.230Z,47.30
2019-01-08T14:59:07.736Z,42.83
2019-01-08T15:01:34.448Z,43.13
2019-01-08T15:04:00.793Z,41.63
2019-01-08T15:06:28.339Z,42.10
2019-01-08T15:08:54.800Z,46.67
2019-01-08T15:11:22.710Z,48.00
2019-01-08T15:13:49.307Z,49.10
2019-01-08T15:16:15.782Z,48.13
2019-01-08T15:18:42.166Z,48.07
2019-01-08T15:21:08.589Z,49.80
2019-01-08T15:23:34.966Z,48.73
2019-01-08T15:26:01.433Z,45.77
2019-01-08T15:28:27.817Z,47.93
2019-01-08T15:30:54.233Z,42.03
2019-01-08T15:33:20.605Z,45.03
2019-01-08T15:35:47.045Z,46.73
2019-01-08T15:38:13.447Z,48.50
2019-01-08T15:40:39.815Z,44.77
2019-01-08T15:43:06.207Z,43.00
2019-01-08T15:45:32.699Z,45.53
2019-01-08T15:47:59.081Z,47.23
2019-01-08T15:50:25.554Z,46.33
2019-01-08T15:52:51.981Z,46.07
2019-01-08T15:55:18.574Z,46.73
2019-01-08T15:57:44.950Z,48.80
2019-01-08T16:00:11.407Z,48.50
2019-01-08T16:02:37.885Z,44.87
2019-01-08T16:05:06.180Z,47.77
2019-01-08T16:07:32.634Z,45.37
2019-01-08T16:09:59.119Z,44.50
2019-01-08T16:12:25.867Z,45.67
2019-01-08T16:14:52.392Z,43.13
2019-01-08T16:17:19.187Z,43.90
2019-01-08T16:19:45.672Z,43.53
2019-01-08T16:22:12.170Z,47.00
2019-01-08T16:24:38.522Z,44.93
2019-01-08T16:27:04.921Z,47.23
2019-01-08T16:29:31.460Z,48.03
2019-01-08T16:31:57.808Z,46.67
2019-01-08T16:34:24.235Z,46.03
2019-01-08T16:36:50.588Z,50.90
2019-01-08T16:39:17.664Z,48.27
2019-01-08T16:41:44.365Z,49.20
2019-01-08T16:44:11.366Z,48.30
2019-01-08T16:46:38.277Z,52.33
2019-01-08T16:49:04.718Z,49.17
2019-01-08T16:51:31.139Z,51.50
2019-01-08T16:53:57.553Z,51.67
2019-01-08T16:56:23.951Z,48.83
2019-01-08T16:58:50.512Z,50.80
2019-01-08T17:01:16.937Z,49.23
2019-01-08T17:03:43.788Z,50.70
2019-01-08T17:06:10.298Z,46.60
2019-01-08T17:08:36.809Z,48.67
2019-01-08T17:11:03.169Z,47.50
2019-01-08T17:13:29.633Z,47.50
2019-01-08T17:15:55.979Z,47.73
2019-01-08T17:18:23.803Z,43.40
2019-01-08T17:20:50.208Z,43.97
2019-01-08T17:23:16.635Z,43.93
2019-01-08T17:25:47.940Z,43.03
2019-01-08T17:28:12.260Z,43.77
2019-01-08T17:30:38.592Z,45.50
2019-01-08T17:33:05.304Z,48.00
2019-01-08T17:35:31.830Z,48.43
2019-01-08T17:37:58.282Z,43.77
2019-01-08T17:40:24.661Z,46.13
2019-01-08T17:42:51.070Z,43.47
2019-01-08T17:45:17.459Z,33.47
2019-01-08T17:47:43.956Z,34.70
2019-01-08T17:50:10.299Z,31.83
2019-01-08T17:52:36.755Z,28.77
2019-01-08T17:55:04.105Z,29.70
2019-01-08T17:57:30.482Z,27.30
2019-01-08T17:59:56.943Z,30.33
2019-01-08T18:02:23.417Z,31.87
2019-01-08T18:04:49.894Z,33.53
2019-01-08T18:07:16.519Z,36.63
2019-01-08T18:09:42.894Z,39.63
2019-01-08T18:12:09.480Z,40.80
2019-01-08T18:14:36.147Z,38.50
2019-01-08T18:17:02.615Z,35.30
2019-01-08T18:19:29.291Z,32.43
2019-01-08T18:21:55.824Z,30.03
2019-01-08T18:24:22.345Z,28.03
2019-01-08T18:26:48.784Z,27.67
2019-01-08T18:29:15.237Z,23.50
2019-01-08T18:31:41.645Z,22.53
2019-01-08T18:34:08.155Z,25.00
2019-01-08T18:36:34.663Z,25.37
2019-01-08T18:39:01.034Z,27.97
2019-01-08T18:41:28.610Z,24.40
2019-01-08T18:43:56.189Z,29.87
2019-01-08T18:46:22.676Z,38.73
2019-01-08T18:48:49.199Z,35.60
2019-01-08T18:51:15.654Z,33.13
2019-01-08T18:53:42.199Z,32.50
2019-01-08T18:56:08.571Z,33.43
2019-01-08T18:58:35.003Z,30.40
2019-01-08T19:01:01.492Z,28.03
2019-01-08T19:03:28.117Z,30.73
2019-01-08T19:05:55.042Z,26.93
2019-01-08T19:08:24.344Z,30.63
2019-01-08T19:10:50.923Z,28.63
2019-01-08T19:13:17.321Z,27.80
2019-01-08T19:15:43.756Z,29.70
2019-01-08T19:18:10.439Z,31.30
2019-01-08T19:20:37.045Z,31.23
2019-01-08T19:23:03.541Z,30.73
2019-01-08T19:25:31.371Z,34.67
2019-01-08T19:27:59.175Z,35.17
2019-01-08T19:30:26.480Z,35.37
2019-01-08T19:32:52.943Z,35.37
2019-01-08T19:35:19.403Z,36.33
2019-01-08T19:37:45.827Z,36.80
2019-01-08T19:40:12.249Z,38.47
2019-01-08T19:42:38.775Z,39.40
2019-01-08T19:45:06.356Z,39.30
2019-01-08T19:47:32.729Z,42.83
2019-01-08T19:50:00.324Z,42.73
2019-01-08T19:52:29.027Z,43.00
2019-01-08T19:54:55.586Z,42.83
2019-01-08T19:57:22.108Z,47.93
2019-01-08T19:59:48.592Z,47.40
2019-01-08T20:02:15.267Z,47.07
2019-01-08T20:04:41.648Z,51.00
2019-01-08T20:07:08.091Z,49.87
2019-01-08T20:09:34.529Z,51.60
2019-01-08T20:12:00.944Z,50.93
2019-01-08T20:14:27.806Z,49.93
2019-01-08T20:16:55.315Z,49.40
2019-01-08T20:19:22.116Z,49.37
2019-01-08T20:21:48.769Z,49.93
2019-01-08T20:24:15.510Z,48.83
2019-01-08T20:26:42.088Z,46.03
2019-01-08T20:29:08.984Z,47.57
2019-01-08T20:31:36.139Z,47.43
2019-01-08T20:34:02.902Z,46.90
2019-01-08T20:36:29.707Z,48.67
2019-01-08T20:38:56.068Z,46.80
2019-01-08T20:41:22.503Z,48.73
2019-01-08T20:43:49.116Z,46.20
2019-01-08T20:46:15.967Z,48.80
2019-01-08T20:48:42.631Z,49.40
2019-01-08T20:51:09.453Z,49.13
2019-01-08T20:53:36.919Z,49.23
2019-01-08T20:56:03.713Z,47.53
2019-01-08T20:58:30.146Z,48.97
2019-01-08T21:00:56.710Z,48.30
2019-01-08T21:03:23.101Z,53.40
2019-01-08T21:05:49.586Z,59.30
2019-01-08T21:08:16.255Z,58.23
2019-01-08T21:10:43.159Z,57.10
2019-01-08T21:13:11.915Z,51.60
2019-01-08T21:15:39.176Z,39.30
2019-01-08T21:18:05.792Z,37.57
2019-01-08T21:20:32.657Z,30.73
2019-01-08T21:22:59.475Z,27.90
2019-01-08T21:25:26.035Z,28.70
2019-01-08T21:27:52.499Z,25.17
2019-01-08T21:30:19.326Z,26.40
2019-01-08T21:32:45.860Z,26.23
2019-01-08T21:35:12.481Z,26.13
2019-01-08T21:37:39.062Z,25.20
2019-01-08T21:40:06.230Z,24.90
2019-01-08T21:42:32.788Z,22.27
2019-01-08T21:44:59.198Z,22.57
2019-01-08T21:47:25.674Z,20.87
2019-01-08T21:49:52.297Z,15.70
2019-01-08T21:52:18.777Z,14.77
2019-01-08T21:54:45.321Z,14.60
2019-01-08T21:57:11.910Z,14.47
2019-01-08T21:59:38.594Z,14.27
2019-01-08T22:02:05.135Z,13.20
2019-01-08T22:04:31.817Z,12.37
2019-01-08T22:06:58.183Z,13.90
2019-01-08T22:09:24.620Z,14.93
2019-01-08T22:11:50.992Z,12.77
2019-01-08T22:14:17.492Z,11.90
2019-01-08T22:16:43.928Z,10.73
2019-01-08T22:19:10.367Z,11.83
2019-01-08T22:21:36.946Z,11.00
2019-01-08T22:24:03.420Z,9.90
2019-01-08T22:26:29.780Z,9.83
2019-01-08T22:28:56.184Z,10.03
2019-01-08T22:31:22.599Z,9.60
2019-01-08T22:33:49.003Z,9.47
2019-01-08T22:36:15.364Z,10.60
2019-01-08T22:38:41.785Z,11.37
2019-01-08T22:41:08.151Z,10.83
2019-01-08T22:43:34.833Z,10.33
2019-01-08T22:46:01.187Z,11.63
2019-01-08T22:48:27.593Z,11.17
2019-01-08T22:50:53.995Z,11.10
2019-01-08T22:53:20.410Z,10.53
2019-01-08T22:55:46.785Z,11.17
2019-01-08T22:58:13.151Z,12.97
2019-01-08T23:00:50.232Z,12.37
2019-01-08T23:03:17.369Z,12.37
2019-01-08T23:05:44.194Z,13.17
2019-01-08T23:08:10.595Z,12.40
2019-01-08T23:10:38.019Z,11.30
2019-01-08T23:13:04.427Z,14.93
2019-01-08T23:15:30.783Z,13.77
2019-01-08T23:17:57.198Z,13.87
2019-01-08T23:20:23.723Z,11.53
2019-01-08T23:22:50.109Z,15.13
2019-01-08T23:25:16.503Z,14.13
2019-01-08T23:27:42.896Z,11.60
2019-01-08T23:30:09.263Z,10.20
2019-01-08T23:32:35.656Z,10.43
2019-01-08T23:35:02.806Z,10.47
2019-01-08T23:37:29.219Z,10.00
2019-01-08T23:39:55.605Z,10.13
2019-01-08T23:42:21.996Z,9.83
2019-01-08T23:44:48.483Z,10.87
2019-01-08T23:47:15.103Z,8.97
2019-01-08T23:49:41.484Z,8.80
2019-01-08T23:52:08.110Z,8.30
2019-01-08T23:54:34.562Z,8.27
2019-01-08T23:57:01.559Z,8.10
2019-01-08T23:59:28.029Z,8.50
